sensor_id;sensor_type;location;lat;lon;timestamp;P1;durP1;ratioP1;P2;durP2;ratioP2
79478;SDS011;68943;49.472;17.970;2023-04-30T00:01:04;13.05;;;8.15;;
79478;SDS011;68943;49.472;17.970;2023-04-30T00:03:30;13.40;;;8.82;;
79478;SDS011;68943;49.472;17.970;2023-04-30T00:05:56;17.90;;;10.07;;
79478;SDS011;68943;49.472;17.970;2023-04-30T00:08:22;14.35;;;10.13;;
79478;SDS011;68943;49.472;17.970;2023-04-30T00:10:48;17.27;;;11.15;;
79478;SDS011;68943;49.472;17.970;2023-04-30T00:13:15;16.67;;;10.93;;
79478;SDS011;68943;49.472;17.970;2023-04-30T00:15:42;20.65;;;11.95;;
79478;SDS011;68943;49.472;17.970;2023-04-30T00:18:08;17.17;;;10.55;;
79478;SDS011;68943;49.472;17.970;2023-04-30T00:20:35;24.00;;;14.20;;
79478;SDS011;68943;49.472;17.970;2023-04-30T00:23:01;20.52;;;12.75;;
79478;SDS011;68943;49.472;17.970;2023-04-30T00:25:28;20.83;;;12.60;;
79478;SDS011;68943;49.472;17.970;2023-04-30T00:27:54;21.50;;;13.75;;
79478;SDS011;68943;49.472;17.970;2023-04-30T00:30:20;23.92;;;14.48;;
79478;SDS011;68943;49.472;17.970;2023-04-30T00:32:46;22.75;;;15.18;;
79478;SDS011;68943;49.472;17.970;2023-04-30T00:35:12;22.58;;;12.13;;
79478;SDS011;68943;49.472;17.970;2023-04-30T00:37:38;20.17;;;11.90;;
79478;SDS011;68943;49.472;17.970;2023-04-30T00:40:04;22.17;;;12.93;;
79478;SDS011;68943;49.472;17.970;2023-04-30T00:42:30;21.67;;;13.27;;
79478;SDS011;68943;49.472;17.970;2023-04-30T00:44:56;21.05;;;13.63;;
79478;SDS011;68943;49.472;17.970;2023-04-30T00:47:22;21.52;;;13.40;;
79478;SDS011;68943;49.472;17.970;2023-04-30T00:49:48;24.50;;;15.77;;
79478;SDS011;68943;49.472;17.970;2023-04-30T00:52:15;24.20;;;14.73;;
79478;SDS011;68943;49.472;17.970;2023-04-30T00:54:41;21.30;;;13.60;;
79478;SDS011;68943;49.472;17.970;2023-04-30T00:57:08;21.60;;;13.98;;
79478;SDS011;68943;49.472;17.970;2023-04-30T00:59:37;24.42;;;14.75;;
79478;SDS011;68943;49.472;17.970;2023-04-30T01:02:03;21.50;;;14.70;;
79478;SDS011;68943;49.472;17.970;2023-04-30T01:04:29;21.95;;;14.00;;
79478;SDS011;68943;49.472;17.970;2023-04-30T01:06:57;22.55;;;14.10;;
79478;SDS011;68943;49.472;17.970;2023-04-30T01:09:26;21.10;;;14.27;;
79478;SDS011;68943;49.472;17.970;2023-04-30T01:16:50;22.48;;;13.88;;
79478;SDS011;68943;49.472;17.970;2023-04-30T01:21:49;23.90;;;14.68;;
79478;SDS011;68943;49.472;17.970;2023-04-30T01:24:22;24.23;;;15.07;;
79478;SDS011;68943;49.472;17.970;2023-04-30T01:26:58;23.90;;;15.07;;
79478;SDS011;68943;49.472;17.970;2023-04-30T01:29:25;21.20;;;14.00;;
79478;SDS011;68943;49.472;17.970;2023-04-30T01:31:51;22.27;;;13.65;;
79478;SDS011;68943;49.472;17.970;2023-04-30T01:34:17;25.48;;;14.40;;
79478;SDS011;68943;49.472;17.970;2023-04-30T01:49:58;22.70;;;14.32;;
79478;SDS011;68943;49.472;17.970;2023-04-30T01:54:56;20.55;;;13.93;;
79478;SDS011;68943;49.472;17.970;2023-04-30T01:57:31;21.85;;;12.80;;
79478;SDS011;68943;49.472;17.970;2023-04-30T01:59:57;25.70;;;14.13;;
79478;SDS011;68943;49.472;17.970;2023-04-30T02:02:23;20.40;;;13.80;;
79478;SDS011;68943;49.472;17.970;2023-04-30T02:04:49;16.75;;;9.88;;
79478;SDS011;68943;49.472;17.970;2023-04-30T02:07:16;17.63;;;11.38;;
79478;SDS011;68943;49.472;17.970;2023-04-30T02:09:45;21.42;;;13.20;;
79478;SDS011;68943;49.472;17.970;2023-04-30T02:12:11;16.35;;;11.05;;
79478;SDS011;68943;49.472;17.970;2023-04-30T02:14:37;15.75;;;10.30;;
79478;SDS011;68943;49.472;17.970;2023-04-30T02:17:04;15.57;;;10.40;;
79478;SDS011;68943;49.472;17.970;2023-04-30T02:19:30;13.63;;;9.43;;
79478;SDS011;68943;49.472;17.970;2023-04-30T02:21:56;12.15;;;6.72;;
79478;SDS011;68943;49.472;17.970;2023-04-30T02:24:22;16.13;;;9.43;;
79478;SDS011;68943;49.472;17.970;2023-04-30T02:26:48;10.57;;;6.57;;
79478;SDS011;68943;49.472;17.970;2023-04-30T02:29:14;8.27;;;5.38;;
79478;SDS011;68943;49.472;17.970;2023-04-30T02:31:41;7.10;;;6.13;;
79478;SDS011;68943;49.472;17.970;2023-04-30T02:34:07;8.88;;;6.40;;
79478;SDS011;68943;49.472;17.970;2023-04-30T02:36:33;6.22;;;4.88;;
79478;SDS011;68943;49.472;17.970;2023-04-30T02:39:00;8.10;;;4.75;;
79478;SDS011;68943;49.472;17.970;2023-04-30T02:41:26;11.00;;;6.82;;
79478;SDS011;68943;49.472;17.970;2023-04-30T02:43:52;8.07;;;4.22;;
79478;SDS011;68943;49.472;17.970;2023-04-30T02:46:18;10.35;;;5.55;;
79478;SDS011;68943;49.472;17.970;2023-04-30T02:48:44;11.40;;;8.90;;
79478;SDS011;68943;49.472;17.970;2023-04-30T02:51:10;9.50;;;5.95;;
79478;SDS011;68943;49.472;17.970;2023-04-30T02:53:37;12.95;;;8.27;;
79478;SDS011;68943;49.472;17.970;2023-04-30T02:56:03;13.20;;;8.05;;
79478;SDS011;68943;49.472;17.970;2023-04-30T02:58:29;12.95;;;8.77;;
79478;SDS011;68943;49.472;17.970;2023-04-30T03:00:55;12.40;;;8.38;;
79478;SDS011;68943;49.472;17.970;2023-04-30T03:03:21;13.15;;;7.72;;
79478;SDS011;68943;49.472;17.970;2023-04-30T03:05:47;14.55;;;8.75;;
79478;SDS011;68943;49.472;17.970;2023-04-30T03:08:13;14.52;;;8.23;;
79478;SDS011;68943;49.472;17.970;2023-04-30T03:10:39;16.23;;;8.85;;
79478;SDS011;68943;49.472;17.970;2023-04-30T03:13:05;16.25;;;8.40;;
79478;SDS011;68943;49.472;17.970;2023-04-30T03:15:31;12.98;;;7.03;;
79478;SDS011;68943;49.472;17.970;2023-04-30T03:17:58;12.80;;;8.48;;
79478;SDS011;68943;49.472;17.970;2023-04-30T03:20:24;16.35;;;9.30;;
79478;SDS011;68943;49.472;17.970;2023-04-30T03:22:50;15.88;;;8.95;;
79478;SDS011;68943;49.472;17.970;2023-04-30T03:25:16;10.93;;;7.57;;
79478;SDS011;68943;49.472;17.970;2023-04-30T03:27:42;13.43;;;8.07;;
79478;SDS011;68943;49.472;17.970;2023-04-30T03:30:08;14.75;;;8.55;;
79478;SDS011;68943;49.472;17.970;2023-04-30T03:32:34;14.70;;;7.95;;
79478;SDS011;68943;49.472;17.970;2023-04-30T03:35:00;13.07;;;8.32;;
79478;SDS011;68943;49.472;17.970;2023-04-30T03:37:26;12.63;;;7.75;;
79478;SDS011;68943;49.472;17.970;2023-04-30T03:39:52;13.43;;;8.30;;
79478;SDS011;68943;49.472;17.970;2023-04-30T03:42:18;13.90;;;7.45;;
79478;SDS011;68943;49.472;17.970;2023-04-30T03:44:44;12.60;;;8.82;;
79478;SDS011;68943;49.472;17.970;2023-04-30T03:47:10;13.63;;;7.97;;
79478;SDS011;68943;49.472;17.970;2023-04-30T03:49:36;12.52;;;6.85;;
79478;SDS011;68943;49.472;17.970;2023-04-30T03:52:02;14.85;;;9.30;;
79478;SDS011;68943;49.472;17.970;2023-04-30T03:54:29;16.45;;;9.02;;
79478;SDS011;68943;49.472;17.970;2023-04-30T03:56:55;11.68;;;8.40;;
79478;SDS011;68943;49.472;17.970;2023-04-30T03:59:21;12.30;;;7.88;;
79478;SDS011;68943;49.472;17.970;2023-04-30T04:01:47;15.20;;;8.80;;
79478;SDS011;68943;49.472;17.970;2023-04-30T04:04:13;16.67;;;9.75;;
79478;SDS011;68943;49.472;17.970;2023-04-30T04:06:40;11.50;;;8.25;;
79478;SDS011;68943;49.472;17.970;2023-04-30T04:09:06;12.18;;;8.05;;
79478;SDS011;68943;49.472;17.970;2023-04-30T04:11:32;13.65;;;8.35;;
79478;SDS011;68943;49.472;17.970;2023-04-30T04:13:58;13.20;;;8.25;;
79478;SDS011;68943;49.472;17.970;2023-04-30T04:16:25;13.77;;;8.80;;
79478;SDS011;68943;49.472;17.970;2023-04-30T04:18:51;15.75;;;10.07;;
79478;SDS011;68943;49.472;17.970;2023-04-30T04:21:17;14.65;;;8.93;;
79478;SDS011;68943;49.472;17.970;2023-04-30T04:23:43;15.18;;;8.95;;
79478;SDS011;68943;49.472;17.970;2023-04-30T04:26:09;14.57;;;8.75;;
79478;SDS011;68943;49.472;17.970;2023-04-30T04:28:36;12.77;;;8.68;;
79478;SDS011;68943;49.472;17.970;2023-04-30T04:31:03;13.50;;;8.75;;
79478;SDS011;68943;49.472;17.970;2023-04-30T04:33:29;12.73;;;8.20;;
79478;SDS011;68943;49.472;17.970;2023-04-30T04:35:55;12.25;;;8.77;;
79478;SDS011;68943;49.472;17.970;2023-04-30T04:38:22;13.93;;;8.30;;
79478;SDS011;68943;49.472;17.970;2023-04-30T04:40:51;12.43;;;8.05;;
79478;SDS011;68943;49.472;17.970;2023-04-30T04:43:18;14.35;;;9.57;;
79478;SDS011;68943;49.472;17.970;2023-04-30T04:45:44;13.50;;;7.32;;
79478;SDS011;68943;49.472;17.970;2023-04-30T04:48:11;14.02;;;8.20;;
79478;SDS011;68943;49.472;17.970;2023-04-30T04:50:37;11.90;;;8.52;;
79478;SDS011;68943;49.472;17.970;2023-04-30T04:53:03;11.25;;;8.15;;
79478;SDS011;68943;49.472;17.970;2023-04-30T04:55:29;10.82;;;8.68;;
79478;SDS011;68943;49.472;17.970;2023-04-30T04:57:55;12.90;;;8.45;;
79478;SDS011;68943;49.472;17.970;2023-04-30T05:00:21;14.13;;;8.07;;
79478;SDS011;68943;49.472;17.970;2023-04-30T05:02:49;13.25;;;8.05;;
79478;SDS011;68943;49.472;17.970;2023-04-30T05:05:15;13.13;;;7.95;;
79478;SDS011;68943;49.472;17.970;2023-04-30T05:07:41;10.80;;;7.70;;
79478;SDS011;68943;49.472;17.970;2023-04-30T05:10:07;17.23;;;7.78;;
79478;SDS011;68943;49.472;17.970;2023-04-30T05:12:34;14.73;;;8.27;;
79478;SDS011;68943;49.472;17.970;2023-04-30T05:15:00;14.75;;;8.45;;
79478;SDS011;68943;49.472;17.970;2023-04-30T05:17:26;12.38;;;7.72;;
79478;SDS011;68943;49.472;17.970;2023-04-30T05:19:52;13.57;;;8.88;;
79478;SDS011;68943;49.472;17.970;2023-04-30T05:22:18;13.32;;;8.43;;
79478;SDS011;68943;49.472;17.970;2023-04-30T05:24:44;12.45;;;7.07;;
79478;SDS011;68943;49.472;17.970;2023-04-30T05:27:10;12.63;;;8.60;;
79478;SDS011;68943;49.472;17.970;2023-04-30T05:29:36;13.27;;;8.70;;
79478;SDS011;68943;49.472;17.970;2023-04-30T05:32:02;14.98;;;7.82;;
79478;SDS011;68943;49.472;17.970;2023-04-30T05:34:28;13.70;;;8.80;;
79478;SDS011;68943;49.472;17.970;2023-04-30T05:36:54;12.10;;;7.57;;
79478;SDS011;68943;49.472;17.970;2023-04-30T05:39:20;14.20;;;8.50;;
79478;SDS011;68943;49.472;17.970;2023-04-30T05:41:46;13.23;;;7.20;;
79478;SDS011;68943;49.472;17.970;2023-04-30T05:44:12;12.70;;;8.38;;
79478;SDS011;68943;49.472;17.970;2023-04-30T05:46:38;13.18;;;7.80;;
79478;SDS011;68943;49.472;17.970;2023-04-30T05:49:04;14.75;;;8.35;;
79478;SDS011;68943;49.472;17.970;2023-04-30T05:51:30;12.88;;;9.00;;
79478;SDS011;68943;49.472;17.970;2023-04-30T05:53:56;10.45;;;7.38;;
79478;SDS011;68943;49.472;17.970;2023-04-30T05:56:22;11.93;;;6.63;;
79478;SDS011;68943;49.472;17.970;2023-04-30T05:58:49;12.45;;;7.43;;
79478;SDS011;68943;49.472;17.970;2023-04-30T06:01:16;12.55;;;8.73;;
79478;SDS011;68943;49.472;17.970;2023-04-30T06:03:43;11.27;;;8.07;;
79478;SDS011;68943;49.472;17.970;2023-04-30T06:06:09;11.75;;;7.63;;
79478;SDS011;68943;49.472;17.970;2023-04-30T06:08:35;15.07;;;8.02;;
79478;SDS011;68943;49.472;17.970;2023-04-30T06:11:02;11.45;;;8.45;;
79478;SDS011;68943;49.472;17.970;2023-04-30T06:13:30;13.57;;;7.57;;
79478;SDS011;68943;49.472;17.970;2023-04-30T06:15:56;14.30;;;7.28;;
79478;SDS011;68943;49.472;17.970;2023-04-30T06:18:22;13.75;;;6.88;;
79478;SDS011;68943;49.472;17.970;2023-04-30T06:20:48;10.27;;;6.45;;
79478;SDS011;68943;49.472;17.970;2023-04-30T06:23:14;10.32;;;5.95;;
79478;SDS011;68943;49.472;17.970;2023-04-30T06:25:40;14.73;;;8.15;;
79478;SDS011;68943;49.472;17.970;2023-04-30T06:28:06;15.35;;;6.85;;
79478;SDS011;68943;49.472;17.970;2023-04-30T06:30:34;12.20;;;7.88;;
79478;SDS011;68943;49.472;17.970;2023-04-30T06:33:00;10.80;;;8.23;;
79478;SDS011;68943;49.472;17.970;2023-04-30T06:35:26;11.57;;;7.53;;
79478;SDS011;68943;49.472;17.970;2023-04-30T06:37:52;13.32;;;7.68;;
79478;SDS011;68943;49.472;17.970;2023-04-30T06:40:18;11.73;;;7.20;;
79478;SDS011;68943;49.472;17.970;2023-04-30T06:42:44;10.35;;;6.68;;
79478;SDS011;68943;49.472;17.970;2023-04-30T06:45:10;15.13;;;7.57;;
79478;SDS011;68943;49.472;17.970;2023-04-30T06:47:39;10.70;;;7.18;;
79478;SDS011;68943;49.472;17.970;2023-04-30T06:50:06;10.90;;;7.65;;
79478;SDS011;68943;49.472;17.970;2023-04-30T06:52:33;10.75;;;6.55;;
79478;SDS011;68943;49.472;17.970;2023-04-30T06:54:59;10.20;;;6.78;;
79478;SDS011;68943;49.472;17.970;2023-04-30T06:57:25;15.88;;;8.40;;
79478;SDS011;68943;49.472;17.970;2023-04-30T06:59:51;12.95;;;7.55;;
79478;SDS011;68943;49.472;17.970;2023-04-30T07:02:17;13.43;;;6.68;;
79478;SDS011;68943;49.472;17.970;2023-04-30T07:04:43;11.35;;;7.70;;
79478;SDS011;68943;49.472;17.970;2023-04-30T07:07:10;12.68;;;7.28;;
79478;SDS011;68943;49.472;17.970;2023-04-30T07:09:36;11.57;;;6.18;;
79478;SDS011;68943;49.472;17.970;2023-04-30T07:12:02;9.85;;;6.63;;
79478;SDS011;68943;49.472;17.970;2023-04-30T07:14:28;14.63;;;8.68;;
79478;SDS011;68943;49.472;17.970;2023-04-30T07:16:54;12.07;;;7.75;;
79478;SDS011;68943;49.472;17.970;2023-04-30T07:19:20;14.52;;;7.25;;
79478;SDS011;68943;49.472;17.970;2023-04-30T07:21:47;11.57;;;8.40;;
79478;SDS011;68943;49.472;17.970;2023-04-30T07:24:13;11.82;;;8.45;;
79478;SDS011;68943;49.472;17.970;2023-04-30T07:26:39;9.63;;;7.07;;
79478;SDS011;68943;49.472;17.970;2023-04-30T07:29:06;11.02;;;7.32;;
79478;SDS011;68943;49.472;17.970;2023-04-30T07:31:32;11.43;;;7.63;;
79478;SDS011;68943;49.472;17.970;2023-04-30T07:33:58;8.93;;;5.80;;
79478;SDS011;68943;49.472;17.970;2023-04-30T07:36:24;12.02;;;8.57;;
79478;SDS011;68943;49.472;17.970;2023-04-30T07:38:51;13.43;;;8.25;;
79478;SDS011;68943;49.472;17.970;2023-04-30T07:41:17;10.85;;;7.20;;
79478;SDS011;68943;49.472;17.970;2023-04-30T07:43:43;10.13;;;6.53;;
79478;SDS011;68943;49.472;17.970;2023-04-30T07:46:09;11.90;;;7.63;;
79478;SDS011;68943;49.472;17.970;2023-04-30T07:48:36;17.05;;;7.47;;
79478;SDS011;68943;49.472;17.970;2023-04-30T07:51:02;10.10;;;7.10;;
79478;SDS011;68943;49.472;17.970;2023-04-30T07:53:31;13.18;;;8.32;;
79478;SDS011;68943;49.472;17.970;2023-04-30T07:55:57;15.30;;;7.10;;
79478;SDS011;68943;49.472;17.970;2023-04-30T07:58:23;9.55;;;6.28;;
79478;SDS011;68943;49.472;17.970;2023-04-30T08:00:49;10.35;;;7.22;;
79478;SDS011;68943;49.472;17.970;2023-04-30T08:03:15;10.75;;;7.03;;
79478;SDS011;68943;49.472;17.970;2023-04-30T08:05:41;10.55;;;7.57;;
79478;SDS011;68943;49.472;17.970;2023-04-30T08:08:07;9.48;;;5.60;;
79478;SDS011;68943;49.472;17.970;2023-04-30T08:10:33;10.40;;;7.15;;
79478;SDS011;68943;49.472;17.970;2023-04-30T08:13:01;15.07;;;7.47;;
79478;SDS011;68943;49.472;17.970;2023-04-30T08:15:28;8.98;;;5.75;;
79478;SDS011;68943;49.472;17.970;2023-04-30T08:17:54;13.73;;;7.00;;
79478;SDS011;68943;49.472;17.970;2023-04-30T08:20:20;9.32;;;5.55;;
79478;SDS011;68943;49.472;17.970;2023-04-30T08:22:47;10.20;;;6.30;;
79478;SDS011;68943;49.472;17.970;2023-04-30T08:25:13;8.43;;;6.43;;
79478;SDS011;68943;49.472;17.970;2023-04-30T08:27:39;8.25;;;5.93;;
79478;SDS011;68943;49.472;17.970;2023-04-30T08:30:05;8.88;;;6.80;;
79478;SDS011;68943;49.472;17.970;2023-04-30T08:32:34;9.52;;;5.88;;
79478;SDS011;68943;49.472;17.970;2023-04-30T08:35:04;11.38;;;6.97;;
79478;SDS011;68943;49.472;17.970;2023-04-30T08:37:30;9.75;;;6.95;;
79478;SDS011;68943;49.472;17.970;2023-04-30T08:39:56;11.63;;;6.47;;
79478;SDS011;68943;49.472;17.970;2023-04-30T08:42:29;10.88;;;6.85;;
79478;SDS011;68943;49.472;17.970;2023-04-30T08:44:57;12.52;;;7.43;;
79478;SDS011;68943;49.472;17.970;2023-04-30T08:49:51;9.38;;;6.90;;
79478;SDS011;68943;49.472;17.970;2023-04-30T08:52:17;12.27;;;7.95;;
79478;SDS011;68943;49.472;17.970;2023-04-30T08:54:44;13.90;;;6.60;;
79478;SDS011;68943;49.472;17.970;2023-04-30T08:57:10;10.98;;;7.95;;
79478;SDS011;68943;49.472;17.970;2023-04-30T08:59:36;11.63;;;5.90;;
79478;SDS011;68943;49.472;17.970;2023-04-30T09:02:02;9.77;;;6.32;;
79478;SDS011;68943;49.472;17.970;2023-04-30T09:04:29;8.27;;;5.03;;
79478;SDS011;68943;49.472;17.970;2023-04-30T09:06:55;10.15;;;6.53;;
79478;SDS011;68943;49.472;17.970;2023-04-30T09:09:26;10.93;;;6.45;;
79478;SDS011;68943;49.472;17.970;2023-04-30T09:12:00;9.57;;;5.50;;
79478;SDS011;68943;49.472;17.970;2023-04-30T09:14:35;10.63;;;5.70;;
79478;SDS011;68943;49.472;17.970;2023-04-30T09:17:04;12.70;;;6.38;;
79478;SDS011;68943;49.472;17.970;2023-04-30T09:19:30;9.80;;;5.80;;
79478;SDS011;68943;49.472;17.970;2023-04-30T09:21:57;6.57;;;5.28;;
79478;SDS011;68943;49.472;17.970;2023-04-30T09:24:23;7.57;;;5.57;;
79478;SDS011;68943;49.472;17.970;2023-04-30T09:26:49;9.07;;;5.78;;
79478;SDS011;68943;49.472;17.970;2023-04-30T09:29:15;8.25;;;4.78;;
79478;SDS011;68943;49.472;17.970;2023-04-30T09:31:43;6.90;;;4.40;;
79478;SDS011;68943;49.472;17.970;2023-04-30T09:34:09;6.90;;;3.72;;
79478;SDS011;68943;49.472;17.970;2023-04-30T09:36:35;6.88;;;4.00;;
79478;SDS011;68943;49.472;17.970;2023-04-30T09:39:08;7.57;;;4.47;;
79478;SDS011;68943;49.472;17.970;2023-04-30T09:41:41;7.97;;;4.68;;
79478;SDS011;68943;49.472;17.970;2023-04-30T09:44:08;11.93;;;4.63;;
79478;SDS011;68943;49.472;17.970;2023-04-30T09:46:50;8.32;;;5.38;;
79478;SDS011;68943;49.472;17.970;2023-04-30T09:49:17;7.00;;;4.95;;
79478;SDS011;68943;49.472;17.970;2023-04-30T09:51:54;8.15;;;5.38;;
79478;SDS011;68943;49.472;17.970;2023-04-30T09:54:27;7.47;;;5.47;;
79478;SDS011;68943;49.472;17.970;2023-04-30T09:56:54;6.60;;;4.50;;
79478;SDS011;68943;49.472;17.970;2023-04-30T09:59:25;6.20;;;5.13;;
79478;SDS011;68943;49.472;17.970;2023-04-30T10:01:54;7.72;;;4.88;;
79478;SDS011;68943;49.472;17.970;2023-04-30T10:04:22;10.18;;;5.72;;
79478;SDS011;68943;49.472;17.970;2023-04-30T10:06:49;6.38;;;4.03;;
79478;SDS011;68943;49.472;17.970;2023-04-30T10:09:17;7.28;;;4.38;;
79478;SDS011;68943;49.472;17.970;2023-04-30T10:11:43;7.03;;;4.32;;
79478;SDS011;68943;49.472;17.970;2023-04-30T10:14:11;6.75;;;4.75;;
79478;SDS011;68943;49.472;17.970;2023-04-30T10:21:33;5.72;;;3.72;;
79478;SDS011;68943;49.472;17.970;2023-04-30T10:24:00;4.65;;;3.15;;
79478;SDS011;68943;49.472;17.970;2023-04-30T10:26:26;5.88;;;4.38;;
79478;SDS011;68943;49.472;17.970;2023-04-30T10:28:53;5.30;;;4.30;;
79478;SDS011;68943;49.472;17.970;2023-04-30T10:31:22;5.60;;;4.10;;
79478;SDS011;68943;49.472;17.970;2023-04-30T10:36:28;6.22;;;4.43;;
79478;SDS011;68943;49.472;17.970;2023-04-30T10:38:57;10.10;;;5.57;;
79478;SDS011;68943;49.472;17.970;2023-04-30T10:41:25;5.03;;;2.88;;
79478;SDS011;68943;49.472;17.970;2023-04-30T10:43:55;4.63;;;3.58;;
79478;SDS011;68943;49.472;17.970;2023-04-30T10:46:22;6.03;;;2.85;;
79478;SDS011;68943;49.472;17.970;2023-04-30T10:48:48;6.60;;;2.90;;
79478;SDS011;68943;49.472;17.970;2023-04-30T10:51:14;8.35;;;3.60;;
79478;SDS011;68943;49.472;17.970;2023-04-30T10:53:41;8.18;;;3.85;;
79478;SDS011;68943;49.472;17.970;2023-04-30T10:56:07;7.07;;;2.72;;
79478;SDS011;68943;49.472;17.970;2023-04-30T10:58:34;8.25;;;2.97;;
79478;SDS011;68943;49.472;17.970;2023-04-30T11:03:30;4.43;;;2.47;;
79478;SDS011;68943;49.472;17.970;2023-04-30T11:05:58;4.68;;;3.03;;
79478;SDS011;68943;49.472;17.970;2023-04-30T11:08:45;7.30;;;3.28;;
79478;SDS011;68943;49.472;17.970;2023-04-30T11:11:16;5.80;;;3.10;;
79478;SDS011;68943;49.472;17.970;2023-04-30T11:13:45;4.93;;;3.42;;
79478;SDS011;68943;49.472;17.970;2023-04-30T11:16:11;3.35;;;2.65;;
79478;SDS011;68943;49.472;17.970;2023-04-30T11:18:44;5.40;;;4.03;;
79478;SDS011;68943;49.472;17.970;2023-04-30T11:21:10;4.18;;;3.35;;
79478;SDS011;68943;49.472;17.970;2023-04-30T11:23:39;3.17;;;2.08;;
79478;SDS011;68943;49.472;17.970;2023-04-30T11:26:07;3.75;;;2.30;;
79478;SDS011;68943;49.472;17.970;2023-04-30T11:28:33;2.47;;;1.52;;
79478;SDS011;68943;49.472;17.970;2023-04-30T11:30:59;4.13;;;2.67;;
79478;SDS011;68943;49.472;17.970;2023-04-30T11:33:27;3.40;;;2.45;;
79478;SDS011;68943;49.472;17.970;2023-04-30T11:35:56;3.53;;;2.38;;
79478;SDS011;68943;49.472;17.970;2023-04-30T11:38:27;3.97;;;3.00;;
79478;SDS011;68943;49.472;17.970;2023-04-30T11:40:53;7.05;;;3.00;;
79478;SDS011;68943;49.472;17.970;2023-04-30T11:43:23;4.03;;;2.92;;
79478;SDS011;68943;49.472;17.970;2023-04-30T11:48:35;3.53;;;2.53;;
79478;SDS011;68943;49.472;17.970;2023-04-30T11:51:02;3.92;;;2.33;;
79478;SDS011;68943;49.472;17.970;2023-04-30T11:53:28;4.20;;;3.33;;
79478;SDS011;68943;49.472;17.970;2023-04-30T11:55:55;6.05;;;2.53;;
79478;SDS011;68943;49.472;17.970;2023-04-30T11:58:21;4.05;;;2.60;;
79478;SDS011;68943;49.472;17.970;2023-04-30T12:00:47;5.97;;;3.05;;
79478;SDS011;68943;49.472;17.970;2023-04-30T12:03:14;3.20;;;2.90;;
79478;SDS011;68943;49.472;17.970;2023-04-30T12:05:41;5.72;;;2.42;;
79478;SDS011;68943;49.472;17.970;2023-04-30T12:08:07;4.72;;;3.58;;
79478;SDS011;68943;49.472;17.970;2023-04-30T12:10:34;3.67;;;1.80;;
79478;SDS011;68943;49.472;17.970;2023-04-30T12:13:00;5.15;;;2.72;;
79478;SDS011;68943;49.472;17.970;2023-04-30T12:15:27;5.85;;;2.97;;
79478;SDS011;68943;49.472;17.970;2023-04-30T12:17:54;4.80;;;3.17;;
79478;SDS011;68943;49.472;17.970;2023-04-30T12:20:20;4.43;;;2.97;;
79478;SDS011;68943;49.472;17.970;2023-04-30T12:22:47;3.40;;;2.65;;
79478;SDS011;68943;49.472;17.970;2023-04-30T12:25:14;3.00;;;2.15;;
79478;SDS011;68943;49.472;17.970;2023-04-30T12:27:41;3.80;;;2.70;;
79478;SDS011;68943;49.472;17.970;2023-04-30T12:30:07;2.92;;;2.63;;
79478;SDS011;68943;49.472;17.970;2023-04-30T12:32:38;3.70;;;2.67;;
79478;SDS011;68943;49.472;17.970;2023-04-30T12:35:04;4.18;;;2.33;;
79478;SDS011;68943;49.472;17.970;2023-04-30T12:37:31;4.63;;;3.38;;
79478;SDS011;68943;49.472;17.970;2023-04-30T12:39:57;4.60;;;3.10;;
79478;SDS011;68943;49.472;17.970;2023-04-30T12:42:24;5.25;;;3.42;;
79478;SDS011;68943;49.472;17.970;2023-04-30T12:44:50;4.35;;;2.05;;
79478;SDS011;68943;49.472;17.970;2023-04-30T12:47:16;3.15;;;2.17;;
79478;SDS011;68943;49.472;17.970;2023-04-30T12:49:43;3.90;;;2.22;;
79478;SDS011;68943;49.472;17.970;2023-04-30T12:52:13;4.85;;;2.63;;
79478;SDS011;68943;49.472;17.970;2023-04-30T12:54:39;6.82;;;3.70;;
79478;SDS011;68943;49.472;17.970;2023-04-30T12:57:09;5.45;;;2.88;;
79478;SDS011;68943;49.472;17.970;2023-04-30T13:02:12;4.15;;;2.92;;
79478;SDS011;68943;49.472;17.970;2023-04-30T13:04:42;4.25;;;2.75;;
79478;SDS011;68943;49.472;17.970;2023-04-30T13:07:08;5.05;;;3.00;;
79478;SDS011;68943;49.472;17.970;2023-04-30T13:09:35;4.05;;;3.00;;
79478;SDS011;68943;49.472;17.970;2023-04-30T13:12:02;3.35;;;1.88;;
79478;SDS011;68943;49.472;17.970;2023-04-30T13:14:29;4.32;;;3.10;;
79478;SDS011;68943;49.472;17.970;2023-04-30T13:16:55;6.85;;;3.17;;
79478;SDS011;68943;49.472;17.970;2023-04-30T13:19:21;3.05;;;2.15;;
79478;SDS011;68943;49.472;17.970;2023-04-30T13:21:47;3.80;;;2.63;;
79478;SDS011;68943;49.472;17.970;2023-04-30T13:24:13;3.75;;;2.88;;
79478;SDS011;68943;49.472;17.970;2023-04-30T13:26:41;6.07;;;2.05;;
79478;SDS011;68943;49.472;17.970;2023-04-30T13:29:07;3.42;;;2.88;;
79478;SDS011;68943;49.472;17.970;2023-04-30T13:31:33;5.00;;;3.60;;
79478;SDS011;68943;49.472;17.970;2023-04-30T13:34:00;4.10;;;2.72;;
79478;SDS011;68943;49.472;17.970;2023-04-30T13:36:26;4.45;;;2.90;;
79478;SDS011;68943;49.472;17.970;2023-04-30T13:38:53;5.88;;;3.30;;
79478;SDS011;68943;49.472;17.970;2023-04-30T13:41:19;4.90;;;3.67;;
79478;SDS011;68943;49.472;17.970;2023-04-30T13:43:46;6.30;;;3.70;;
79478;SDS011;68943;49.472;17.970;2023-04-30T13:46:12;3.47;;;2.75;;
79478;SDS011;68943;49.472;17.970;2023-04-30T13:48:40;5.10;;;3.45;;
79478;SDS011;68943;49.472;17.970;2023-04-30T13:51:07;3.95;;;3.05;;
79478;SDS011;68943;49.472;17.970;2023-04-30T13:53:33;4.03;;;3.20;;
79478;SDS011;68943;49.472;17.970;2023-04-30T13:56:05;5.00;;;2.10;;
79478;SDS011;68943;49.472;17.970;2023-04-30T13:58:31;5.30;;;3.75;;
79478;SDS011;68943;49.472;17.970;2023-04-30T14:00:57;5.20;;;3.03;;
79478;SDS011;68943;49.472;17.970;2023-04-30T14:03:23;3.88;;;2.97;;
79478;SDS011;68943;49.472;17.970;2023-04-30T14:05:50;5.82;;;2.42;;
79478;SDS011;68943;49.472;17.970;2023-04-30T14:08:16;4.28;;;3.00;;
79478;SDS011;68943;49.472;17.970;2023-04-30T14:10:42;4.57;;;2.72;;
79478;SDS011;68943;49.472;17.970;2023-04-30T14:13:08;4.18;;;3.75;;
79478;SDS011;68943;49.472;17.970;2023-04-30T14:15:34;4.25;;;3.08;;
79478;SDS011;68943;49.472;17.970;2023-04-30T14:18:02;5.15;;;3.17;;
79478;SDS011;68943;49.472;17.970;2023-04-30T14:20:28;5.68;;;3.65;;
79478;SDS011;68943;49.472;17.970;2023-04-30T14:22:54;2.53;;;2.25;;
79478;SDS011;68943;49.472;17.970;2023-04-30T14:25:20;4.45;;;2.95;;
79478;SDS011;68943;49.472;17.970;2023-04-30T14:27:47;5.55;;;3.30;;
79478;SDS011;68943;49.472;17.970;2023-04-30T14:30:13;4.53;;;3.08;;
79478;SDS011;68943;49.472;17.970;2023-04-30T14:32:39;6.32;;;4.25;;
79478;SDS011;68943;49.472;17.970;2023-04-30T14:35:05;3.97;;;3.53;;
79478;SDS011;68943;49.472;17.970;2023-04-30T14:37:32;4.13;;;3.33;;
79478;SDS011;68943;49.472;17.970;2023-04-30T14:39:58;5.32;;;3.67;;
79478;SDS011;68943;49.472;17.970;2023-04-30T14:42:25;5.07;;;3.80;;
79478;SDS011;68943;49.472;17.970;2023-04-30T14:44:51;3.28;;;2.75;;
79478;SDS011;68943;49.472;17.970;2023-04-30T14:47:18;3.67;;;2.72;;
79478;SDS011;68943;49.472;17.970;2023-04-30T14:49:45;4.03;;;2.90;;
79478;SDS011;68943;49.472;17.970;2023-04-30T14:52:12;4.85;;;3.13;;
79478;SDS011;68943;49.472;17.970;2023-04-30T14:54:38;3.90;;;3.28;;
79478;SDS011;68943;49.472;17.970;2023-04-30T14:57:04;4.05;;;3.67;;
79478;SDS011;68943;49.472;17.970;2023-04-30T14:59:30;6.32;;;3.80;;
79478;SDS011;68943;49.472;17.970;2023-04-30T15:01:58;10.45;;;3.83;;
79478;SDS011;68943;49.472;17.970;2023-04-30T15:04:24;4.00;;;2.53;;